Fort Worth - NOAA's Hourly Summary for Saturday, March 18, 2017
Hour Temp
(f)
RH
(%)
Solar Rad.
(MJ/m2)
Rainfall
(in)
Wind
(mph)
3/18/2017 12:00 AM 70 68 0 0 5.82
3/18/2017 1:00 AM 69 74 0 0 4.95
3/18/2017 2:00 AM 67 79 0 0 4
3/18/2017 3:00 AM 66 84 0 0 3.81
3/18/2017 4:00 AM 65 87 0 0 3.02
3/18/2017 5:00 AM 64 90 0 0 2.9
3/18/2017 6:00 AM 65 90 0 0 4.74
3/18/2017 7:00 AM 65 88 0 0 6.18
3/18/2017 8:00 AM 66 87 0.12 0 3.95
3/18/2017 9:00 AM 69 80 0.86 0 4.39
3/18/2017 10:00 AM 72 71 1.64 0 6.2
3/18/2017 11:00 AM 75 65 2.35 0 4.67
3/18/2017 12:00 PM 78 61 2.68 0 3.85
3/18/2017 1:00 PM 80 57 2.68 0 4.71
3/18/2017 2:00 PM 81 53 2.75 0 6.82
3/18/2017 3:00 PM 82 51 2.44 0 7.37
3/18/2017 4:00 PM 84 43 2.04 0 5.55
3/18/2017 5:00 PM 83 42 1.55 0 5.69
3/18/2017 6:00 PM 82 46 0.84 0 6.84
3/18/2017 7:00 PM 79 52 0.15 0 8.16
3/18/2017 8:00 PM 76 58 0 0 6.25
3/18/2017 9:00 PM 74 63 0 0 5.38
3/18/2017 10:00 PM 72 67 0 0 3.98
3/18/2017 11:00 PM 71 71 0 0 2.78
Data Summary 73 67 20.10 0.00 5.08